Time,TemperatureF,DewpointF,PressureIn,WindDirection,WindDirectionDegrees,WindSpeedMPH,WindSpeedGustMPH,Humidity,HourlyPrecipIn,Conditions,Clouds,dailyrainin,SolarRadiationWatts/m^2,SoftwareType,DateUTC
2013-01-20 00:01:00,33.0,19.0,-100.00,West,267,18.0,24.0,55,0.00,,,0.00,0.000000,,2013-01-20 07:01:00,
2013-01-20 00:32:00,33.0,19.0,-100.00,West,267,18.0,24.0,55,0.00,,,0.00,0.000000,,2013-01-20 07:32:00,
2013-01-20 00:42:00,33.0,19.0,-100.00,West,267,18.0,24.0,55,0.00,,,0.00,0.000000,,2013-01-20 07:42:00,
2013-01-20 00:52:00,33.0,19.0,-100.00,West,267,18.0,24.0,55,0.00,,,0.00,0.000000,,2013-01-20 07:52:00,
2013-01-20 01:01:00,33.0,16.0,-100.00,West,279,25.0,31.0,49,0.00,,,0.00,0.000000,,2013-01-20 08:01:00,
2013-01-20 01:22:00,33.0,16.0,-100.00,West,279,25.0,31.0,49,0.00,,,0.00,0.000000,,2013-01-20 08:22:00,
2013-01-20 01:32:00,33.0,16.0,-100.00,West,279,25.0,31.0,49,0.00,,,0.00,0.000000,,2013-01-20 08:32:00,
2013-01-20 01:42:00,33.0,16.0,-100.00,West,279,25.0,31.0,49,0.00,,,0.00,0.000000,,2013-01-20 08:42:00,
2013-01-20 01:52:00,33.0,16.0,-100.00,West,279,25.0,31.0,49,0.00,,,0.00,0.000000,,2013-01-20 08:52:00,
2013-01-20 02:01:00,31.0,16.0,-100.00,NW,304,17.0,32.0,54,0.00,,,0.00,0.000000,,2013-01-20 09:01:00,
2013-01-20 02:33:00,31.0,16.0,-100.00,NW,304,17.0,32.0,54,0.00,,,0.00,0.000000,,2013-01-20 09:33:00,
2013-01-20 02:42:00,31.0,16.0,-100.00,NW,304,17.0,32.0,54,0.00,,,0.00,0.000000,,2013-01-20 09:42:00,
2013-01-20 02:53:00,31.0,16.0,-100.00,NW,304,17.0,32.0,54,0.00,,,0.00,0.000000,,2013-01-20 09:53:00,
2013-01-20 03:01:00,23.0,14.0,-100.00,NNW,334,18.0,26.0,68,0.00,,,0.00,0.000000,,2013-01-20 10:01:00,
2013-01-20 03:33:00,23.0,14.0,-100.00,NNW,334,18.0,26.0,68,0.00,,,0.00,0.000000,,2013-01-20 10:33:00,
2013-01-20 03:42:00,23.0,14.0,-100.00,NNW,334,18.0,26.0,68,0.00,,,0.00,0.000000,,2013-01-20 10:42:00,
2013-01-20 03:52:00,23.0,14.0,-100.00,NNW,334,18.0,26.0,68,0.00,,,0.00,0.000000,,2013-01-20 10:52:00,
2013-01-20 04:01:00,17.0,15.0,-100.00,NNW,330,15.0,22.0,92,0.00,,,0.00,0.000000,,2013-01-20 11:01:00,
2013-01-20 04:22:00,17.0,15.0,-100.00,NNW,330,15.0,22.0,92,0.00,,,0.00,0.000000,,2013-01-20 11:22:00,
2013-01-20 04:33:00,17.0,15.0,-100.00,NNW,330,15.0,22.0,92,0.00,,,0.00,0.000000,,2013-01-20 11:33:00,
2013-01-20 04:43:00,17.0,15.0,-100.00,NNW,330,15.0,22.0,92,0.00,,,0.00,0.000000,,2013-01-20 11:43:00,
2013-01-20 04:53:00,17.0,15.0,-100.00,NNW,330,15.0,22.0,92,0.00,,,0.00,0.000000,,2013-01-20 11:53:00,
2013-01-20 05:01:00,15.0,12.0,-100.00,North,7,14.0,25.0,89,0.00,,,0.00,0.000000,,2013-01-20 12:01:00,
2013-01-20 05:33:00,15.0,12.0,-100.00,North,7,14.0,25.0,89,0.00,,,0.00,0.000000,,2013-01-20 12:33:00,
2013-01-20 05:43:00,15.0,12.0,-100.00,North,7,14.0,25.0,89,0.00,,,0.00,0.000000,,2013-01-20 12:43:00,
2013-01-20 05:53:00,15.0,12.0,-100.00,North,7,14.0,25.0,89,0.00,,,0.00,0.000000,,2013-01-20 12:53:00,
2013-01-20 06:01:00,12.0,9.0,-100.00,North,3,15.0,20.0,87,0.00,,,0.00,0.000000,,2013-01-20 13:01:00,
2013-01-20 06:33:00,12.0,9.0,-100.00,North,3,15.0,20.0,87,0.00,,,0.00,0.000000,,2013-01-20 13:33:00,
2013-01-20 06:43:00,12.0,9.0,-100.00,North,3,15.0,20.0,87,0.00,,,0.00,0.000000,,2013-01-20 13:43:00,
2013-01-20 06:53:00,12.0,9.0,-100.00,North,3,15.0,20.0,87,0.00,,,0.00,0.000000,,2013-01-20 13:53:00,
2013-01-20 07:01:00,12.0,9.0,-100.00,NNW,334,8.0,15.0,86,0.00,,,0.00,0.000000,,2013-01-20 14:01:00,
2013-01-20 07:23:00,12.0,9.0,-100.00,NNW,334,8.0,15.0,86,0.00,,,0.00,0.000000,,2013-01-20 14:23:00,
2013-01-20 07:33:00,12.0,9.0,-100.00,NNW,334,8.0,15.0,86,0.00,,,0.00,0.000000,,2013-01-20 14:33:00,
2013-01-20 07:43:00,12.0,9.0,-100.00,NNW,334,8.0,15.0,86,0.00,,,0.00,0.000000,,2013-01-20 14:43:00,
2013-01-20 07:53:00,12.0,9.0,-100.00,NNW,334,8.0,15.0,86,0.00,,,0.00,0.000000,,2013-01-20 14:53:00,
2013-01-20 08:01:00,13.0,10.0,-100.00,WNW,295,8.0,12.0,86,0.00,,,0.00,2.000000,,2013-01-20 15:01:00,
2013-01-20 08:33:00,13.0,10.0,-100.00,WNW,295,8.0,12.0,86,0.00,,,0.00,2.000000,,2013-01-20 15:33:00,
2013-01-20 08:43:00,13.0,10.0,-100.00,WNW,295,8.0,12.0,86,0.00,,,0.00,2.000000,,2013-01-20 15:43:00,
2013-01-20 08:53:00,13.0,10.0,-100.00,WNW,295,8.0,12.0,86,0.00,,,0.00,2.000000,,2013-01-20 15:53:00,
2013-01-20 09:01:00,14.0,11.0,-100.00,NW,323,10.0,14.0,87,0.00,,,0.00,20.000000,,2013-01-20 16:01:00,
2013-01-20 09:33:00,14.0,11.0,-100.00,NW,323,10.0,14.0,87,0.00,,,0.00,20.000000,,2013-01-20 16:33:00,
2013-01-20 09:43:00,14.0,11.0,-100.00,NW,323,10.0,14.0,87,0.00,,,0.00,20.000000,,2013-01-20 16:43:00,
2013-01-20 09:53:00,14.0,11.0,-100.00,NW,323,10.0,14.0,87,0.00,,,0.00,20.000000,,2013-01-20 16:53:00,
2013-01-20 10:01:00,15.0,12.0,-100.00,NNW,338,8.0,16.0,88,0.00,,,0.00,47.000000,,2013-01-20 17:01:00,
2013-01-20 10:33:00,15.0,12.0,-100.00,NNW,338,8.0,16.0,88,0.00,,,0.00,47.000000,,2013-01-20 17:33:00,
2013-01-20 10:43:00,15.0,12.0,-100.00,NNW,338,8.0,16.0,88,0.00,,,0.00,47.000000,,2013-01-20 17:43:00,
2013-01-20 10:53:00,15.0,12.0,-100.00,NNW,338,8.0,16.0,88,0.00,,,0.00,47.000000,,2013-01-20 17:53:00,
2013-01-20 11:01:00,13.0,10.0,-100.00,NNW,336,7.0,12.0,87,0.00,,,0.00,60.000000,,2013-01-20 18:01:00,
2013-01-20 11:24:00,13.0,10.0,-100.00,NNW,336,7.0,12.0,87,0.00,,,0.00,60.000000,,2013-01-20 18:24:00,
2013-01-20 11:33:00,13.0,10.0,-100.00,NNW,336,7.0,12.0,87,0.00,,,0.00,60.000000,,2013-01-20 18:33:00,
2013-01-20 11:43:00,13.0,10.0,-100.00,NNW,336,7.0,12.0,87,0.00,,,0.00,60.000000,,2013-01-20 18:43:00,
2013-01-20 11:53:00,13.0,10.0,-100.00,NNW,336,7.0,12.0,87,0.00,,,0.00,60.000000,,2013-01-20 18:53:00,
2013-01-20 12:01:00,14.0,10.0,-100.00,NNW,335,5.0,9.0,85,0.00,,,0.00,140.000000,,2013-01-20 19:01:00,
2013-01-20 12:33:00,14.0,10.0,-100.00,NNW,335,5.0,9.0,85,0.00,,,0.00,140.000000,,2013-01-20 19:33:00,
2013-01-20 12:43:00,14.0,10.0,-100.00,NNW,335,5.0,9.0,85,0.00,,,0.00,140.000000,,2013-01-20 19:43:00,
2013-01-20 12:53:00,14.0,10.0,-100.00,NNW,335,5.0,9.0,85,0.00,,,0.00,140.000000,,2013-01-20 19:53:00,
2013-01-20 13:01:00,14.0,10.0,-100.00,North,2,3.0,7.0,85,0.00,,,0.00,194.000000,,2013-01-20 20:01:00,
2013-01-20 13:33:00,14.0,10.0,-100.00,North,2,3.0,7.0,85,0.00,,,0.00,194.000000,,2013-01-20 20:33:00,
2013-01-20 13:42:00,14.0,10.0,-100.00,North,2,3.0,7.0,85,0.00,,,0.00,194.000000,,2013-01-20 20:42:00,
2013-01-20 13:53:00,14.0,10.0,-100.00,North,2,3.0,7.0,85,0.00,,,0.00,194.000000,,2013-01-20 20:53:00,
2013-01-20 14:01:00,14.0,10.0,-100.00,North,349,4.0,7.0,85,0.00,,,0.00,156.000000,,2013-01-20 21:01:00,
2013-01-20 14:33:00,14.0,10.0,-100.00,North,349,4.0,7.0,85,0.00,,,0.00,156.000000,,2013-01-20 21:33:00,
2013-01-20 14:43:00,14.0,10.0,-100.00,North,349,4.0,7.0,85,0.00,,,0.00,156.000000,,2013-01-20 21:43:00,
2013-01-20 14:53:00,14.0,10.0,-100.00,North,349,4.0,7.0,85,0.00,,,0.00,156.000000,,2013-01-20 21:53:00,
2013-01-20 15:01:00,12.0,8.0,-100.00,North,357,6.0,9.0,85,0.00,,,0.00,123.000000,,2013-01-20 22:01:00,
2013-01-20 15:33:00,12.0,8.0,-100.00,North,357,6.0,9.0,85,0.00,,,0.00,123.000000,,2013-01-20 22:33:00,
2013-01-20 15:43:00,12.0,8.0,-100.00,North,357,6.0,9.0,85,0.00,,,0.00,123.000000,,2013-01-20 22:43:00,
2013-01-20 15:53:00,12.0,8.0,-100.00,North,357,6.0,9.0,85,0.00,,,0.00,123.000000,,2013-01-20 22:53:00,
2013-01-20 16:01:00,12.0,8.0,-100.00,NNW,327,3.0,8.0,85,0.00,,,0.00,83.000000,,2013-01-20 23:01:00,
2013-01-20 16:23:00,12.0,8.0,-100.00,NNW,327,3.0,8.0,85,0.00,,,0.00,83.000000,,2013-01-20 23:23:00,
2013-01-20 16:33:00,12.0,8.0,-100.00,NNW,327,3.0,8.0,85,0.00,,,0.00,83.000000,,2013-01-20 23:33:00,
2013-01-20 16:43:00,12.0,8.0,-100.00,NNW,327,3.0,8.0,85,0.00,,,0.00,83.000000,,2013-01-20 23:43:00,
2013-01-20 16:53:00,12.0,8.0,-100.00,NNW,327,3.0,8.0,85,0.00,,,0.00,83.000000,,2013-01-20 23:53:00,
2013-01-20 17:01:00,9.0,5.0,-100.00,North,7,6.0,9.0,85,0.00,,,0.00,29.000000,,2013-01-21 00:01:00,
2013-01-20 17:23:00,9.0,5.0,-100.00,North,7,6.0,9.0,85,0.00,,,0.00,29.000000,,2013-01-21 00:23:00,
2013-01-20 17:33:00,9.0,5.0,-100.00,North,7,6.0,9.0,85,0.00,,,0.00,29.000000,,2013-01-21 00:33:00,
2013-01-20 17:43:00,9.0,5.0,-100.00,North,7,6.0,9.0,85,0.00,,,0.00,29.000000,,2013-01-21 00:43:00,
2013-01-20 17:53:00,9.0,5.0,-100.00,North,7,6.0,9.0,85,0.00,,,0.00,29.000000,,2013-01-21 00:53:00,
2013-01-20 18:01:00,7.0,3.0,-100.00,NE,35,8.0,11.0,84,0.00,,,0.00,0.000000,,2013-01-21 01:01:00,
2013-01-20 18:33:00,7.0,3.0,-100.00,NE,35,8.0,11.0,84,0.00,,,0.00,0.000000,,2013-01-21 01:33:00,
2013-01-20 18:43:00,7.0,3.0,-100.00,NE,35,8.0,11.0,84,0.00,,,0.00,0.000000,,2013-01-21 01:43:00,
2013-01-20 18:53:00,7.0,3.0,-100.00,NE,35,8.0,11.0,84,0.00,,,0.00,0.000000,,2013-01-21 01:53:00,
2013-01-20 19:01:00,6.0,2.0,-100.00,North,7,4.0,8.0,83,0.00,,,0.00,0.000000,,2013-01-21 02:01:00,
2013-01-20 19:23:00,6.0,2.0,-100.00,North,7,4.0,8.0,83,0.00,,,0.00,0.000000,,2013-01-21 02:23:00,
2013-01-20 19:33:00,6.0,2.0,-100.00,North,7,4.0,8.0,83,0.00,,,0.00,0.000000,,2013-01-21 02:33:00,
2013-01-20 19:43:00,6.0,2.0,-100.00,North,7,4.0,8.0,83,0.00,,,0.00,0.000000,,2013-01-21 02:43:00,
2013-01-20 19:53:00,6.0,2.0,-100.00,North,7,4.0,8.0,83,0.00,,,0.00,0.000000,,2013-01-21 02:53:00,
2013-01-20 20:01:00,6.0,2.0,-100.00,North,11,3.0,7.0,82,0.00,,,0.00,0.000000,,2013-01-21 03:01:00,
2013-01-20 20:33:00,6.0,2.0,-100.00,North,11,3.0,7.0,82,0.00,,,0.00,0.000000,,2013-01-21 03:33:00,
2013-01-20 20:43:00,6.0,2.0,-100.00,North,11,3.0,7.0,82,0.00,,,0.00,0.000000,,2013-01-21 03:43:00,
2013-01-20 20:53:00,6.0,2.0,-100.00,North,11,3.0,7.0,82,0.00,,,0.00,0.000000,,2013-01-21 03:53:00,
2013-01-20 21:01:00,4.0,-1.0,-100.00,NNE,33,2.0,5.0,81,0.00,,,0.00,0.000000,,2013-01-21 04:01:00,
2013-01-20 21:33:00,4.0,-1.0,-100.00,NNE,33,2.0,5.0,81,0.00,,,0.00,0.000000,,2013-01-21 04:33:00,
2013-01-20 21:43:00,4.0,-1.0,-100.00,NNE,33,2.0,5.0,81,0.00,,,0.00,0.000000,,2013-01-21 04:43:00,
2013-01-20 21:53:00,4.0,-1.0,-100.00,NNE,33,2.0,5.0,81,0.00,,,0.00,0.000000,,2013-01-21 04:53:00,
2013-01-20 22:01:00,6.0,1.0,-100.00,WNW,300,2.0,3.0,81,0.00,,,0.00,0.000000,,2013-01-21 05:01:00,
2013-01-20 22:22:00,6.0,1.0,-100.00,WNW,300,2.0,3.0,81,0.00,,,0.00,0.000000,,2013-01-21 05:22:00,
2013-01-20 22:34:00,6.0,1.0,-100.00,WNW,300,2.0,3.0,81,0.00,,,0.00,0.000000,,2013-01-21 05:34:00,
2013-01-20 22:42:00,6.0,1.0,-100.00,WNW,300,2.0,3.0,81,0.00,,,0.00,0.000000,,2013-01-21 05:42:00,
2013-01-20 22:53:00,6.0,1.0,-100.00,WNW,300,2.0,3.0,81,0.00,,,0.00,0.000000,,2013-01-21 05:53:00,
2013-01-20 23:01:00,8.0,4.0,-100.00,NNW,327,3.0,5.0,83,0.00,,,0.00,0.000000,,2013-01-21 06:01:00,
2013-01-20 23:33:00,8.0,4.0,-100.00,NNW,327,3.0,5.0,83,0.00,,,0.00,0.000000,,2013-01-21 06:33:00,
2013-01-20 23:43:00,8.0,4.0,-100.00,NNW,327,3.0,5.0,83,0.00,,,0.00,0.000000,,2013-01-21 06:43:00,
2013-01-20 23:53:00,8.0,4.0,-100.00,NNW,327,3.0,5.0,83,0.00,,,0.00,0.000000,,2013-01-21 06:53:00,